createdAt,value
2022-12-14T00:00:12.247Z,49.8
2022-12-14T00:05:31.027Z,49.8
2022-12-14T00:10:49.511Z,49.9
2022-12-14T00:16:07.578Z,49.8
2022-12-14T00:21:25.544Z,50.2
2022-12-14T00:26:43.431Z,50.6
2022-12-14T00:32:01.933Z,50.5
2022-12-14T00:37:20.481Z,50
2022-12-14T00:42:38.986Z,50
2022-12-14T00:47:57.461Z,50.5
2022-12-14T00:53:16.031Z,50.7
2022-12-14T00:58:34.489Z,49.9
2022-12-14T01:03:52.904Z,50.5
2022-12-14T01:09:11.421Z,50.1
2022-12-14T01:14:29.901Z,49.9
2022-12-14T01:19:50.198Z,50.2
2022-12-14T01:25:08.426Z,50.7
2022-12-14T01:30:26.330Z,50.5
2022-12-14T01:35:44.572Z,50.5
2022-12-14T01:41:02.531Z,50.5
2022-12-14T01:46:20.807Z,50.2
2022-12-14T01:51:39.013Z,50
2022-12-14T01:56:57.526Z,50
2022-12-14T02:02:15.811Z,50.6
2022-12-14T02:07:34.059Z,49.4
2022-12-14T02:12:52.569Z,50
2022-12-14T02:18:11.324Z,49.3
2022-12-14T02:23:31.095Z,49.9
2022-12-14T02:28:49.135Z,50
2022-12-14T02:34:07.578Z,50.4
2022-12-14T02:39:25.811Z,50.3
2022-12-14T02:44:44.631Z,49.9
2022-12-14T02:50:02.809Z,49.3
2022-12-14T02:55:21.034Z,49.3
2022-12-14T03:00:39.536Z,49.4
2022-12-14T03:05:57.789Z,49.4
2022-12-14T03:11:15.995Z,50
2022-12-14T03:16:34.449Z,50.2
2022-12-14T03:21:52.636Z,49.6
2022-12-14T03:27:10.851Z,49.7
2022-12-14T03:32:29.362Z,50.2
2022-12-14T03:37:54.012Z,49.7
2022-12-14T03:43:12.221Z,49.7
2022-12-14T03:48:30.532Z,50.5
2022-12-14T03:53:49.343Z,49.7
2022-12-14T03:59:08.141Z,49.8
2022-12-14T04:04:26.929Z,50.2
2022-12-14T04:09:45.398Z,49.5
2022-12-14T04:15:04.160Z,49.8
2022-12-14T04:20:22.668Z,49.4
2022-12-14T04:25:41.146Z,49.9
2022-12-14T04:30:59.634Z,50.7
2022-12-14T04:36:17.889Z,50.5
2022-12-14T04:41:36.342Z,50.5
2022-12-14T04:46:54.838Z,50.7
2022-12-14T04:52:13.666Z,50.6
2022-12-14T04:57:32.397Z,49.9
2022-12-14T05:02:50.969Z,49.9
2022-12-14T05:08:08.915Z,49.6
2022-12-14T05:13:28.050Z,49.3
2022-12-14T05:18:46.692Z,49.2
2022-12-14T05:24:05.201Z,49.7
2022-12-14T05:29:23.734Z,49.8
2022-12-14T05:34:41.955Z,46.9
2022-12-14T05:40:00.770Z,46.7
2022-12-14T05:45:19.506Z,48.5
2022-12-14T05:50:38.012Z,48.3
2022-12-14T05:55:56.265Z,48.3
2022-12-14T06:01:20.543Z,48.6
2022-12-14T06:06:39.022Z,49.2
2022-12-14T06:11:57.808Z,48.4
2022-12-14T06:17:16.035Z,48.3
2022-12-14T06:22:34.507Z,48.3
2022-12-14T06:27:52.717Z,48.3
2022-12-14T06:33:11.174Z,48.7
2022-12-14T06:38:29.403Z,47.9
2022-12-14T06:43:50.757Z,47.5
2022-12-14T06:49:09.532Z,47.9
2022-12-14T06:54:28.305Z,47.7
2022-12-14T06:59:46.538Z,47.6
2022-12-14T07:05:04.428Z,48.3
2022-12-14T07:10:22.920Z,48.3
2022-12-14T07:15:41.686Z,47.7
2022-12-14T07:20:59.947Z,48
2022-12-14T07:26:18.174Z,47.6
2022-12-14T07:31:36.287Z,48.2
2022-12-14T07:36:54.520Z,47.5
2022-12-14T07:42:12.736Z,47.3
2022-12-14T07:47:31.226Z,48
2022-12-14T07:52:49.982Z,47.4
2022-12-14T07:58:08.755Z,48.1
2022-12-14T08:03:28.421Z,47.7
2022-12-14T08:08:46.512Z,47.8
2022-12-14T08:14:05.042Z,48
2022-12-14T08:19:13.280Z,47.3
2022-12-14T08:24:32.030Z,47.5
2022-12-14T08:29:50.515Z,47.3
2022-12-14T08:35:09.040Z,47.2
2022-12-14T08:40:27.764Z,47.2
2022-12-14T08:45:30.637Z,47.9
2022-12-14T08:50:33.491Z,47.2
2022-12-14T08:55:51.983Z,48.1
2022-12-14T09:00:54.920Z,48
2022-12-14T09:06:13.397Z,47.1
2022-12-14T09:11:31.614Z,48.3
2022-12-14T09:16:50.180Z,47.8
2022-12-14T09:22:08.621Z,47.4
2022-12-14T09:27:27.097Z,46.7
2022-12-14T09:32:51.424Z,47.8
2022-12-14T09:37:54.043Z,47.4
2022-12-14T09:43:12.233Z,47.2
2022-12-14T09:48:32.518Z,47.8
2022-12-14T09:53:50.863Z,48.1
2022-12-14T09:59:09.376Z,47.2
2022-12-14T10:04:27.905Z,47.1
2022-12-14T10:09:46.703Z,47.5
2022-12-14T10:15:05.471Z,47.7
2022-12-14T10:25:55.623Z,47
2022-12-14T10:58:17.580Z,48
2022-12-14T11:03:36.278Z,47.3
2022-12-14T11:14:26.207Z,46.5
2022-12-14T11:19:44.713Z,46.6
2022-12-14T12:03:56.322Z,46.6
2022-12-14T12:09:15.268Z,46.9
2022-12-14T12:14:34.032Z,46.5
2022-12-14T12:25:37.573Z,46.3
2022-12-14T12:36:27.171Z,46.7
2022-12-14T12:41:45.688Z,46
2022-12-14T12:47:48.058Z,46.7
2022-12-14T12:53:07.072Z,45.9
2022-12-14T12:58:25.691Z,45.9
2022-12-14T13:03:43.817Z,47.1
2022-12-14T13:09:02.008Z,47
2022-12-14T13:14:20.479Z,47.3
2022-12-14T13:19:56.068Z,46.6
2022-12-14T13:25:14.691Z,46.4
2022-12-14T13:30:33.463Z,46.8
2022-12-14T13:35:51.940Z,46.3
2022-12-14T13:41:10.164Z,47
2022-12-14T13:46:28.736Z,47.1
2022-12-14T13:51:51.070Z,46.6
2022-12-14T13:57:09.258Z,46.3
2022-12-14T14:02:28.793Z,46.9
2022-12-14T14:07:47.142Z,46
2022-12-14T14:13:05.086Z,46.9
2022-12-14T14:18:23.114Z,46.6
2022-12-14T14:23:41.586Z,47
2022-12-14T14:28:59.770Z,47.4
2022-12-14T14:34:23.132Z,47.2
2022-12-14T14:40:18.556Z,47.7
2022-12-14T14:45:37.274Z,47.7
2022-12-14T14:50:55.995Z,47.4
2022-12-14T14:56:14.460Z,46.8
2022-12-14T15:01:33.157Z,47.3
2022-12-14T15:06:51.498Z,47.5
2022-12-14T15:12:09.956Z,47.3
2022-12-14T15:17:28.447Z,47.3
2022-12-14T15:22:46.975Z,47.7
2022-12-14T15:28:05.429Z,47.4
2022-12-14T15:33:24.183Z,47.3
2022-12-14T15:38:42.194Z,46.9
2022-12-14T15:44:01.197Z,47.5
2022-12-14T15:49:19.670Z,47.4
2022-12-14T15:54:37.902Z,47.5
2022-12-14T15:59:56.073Z,46.9
2022-12-14T16:05:14.835Z,47.4
2022-12-14T16:10:33.061Z,47
2022-12-14T16:15:51.236Z,47.2
2022-12-14T16:21:09.720Z,47.5
2022-12-14T16:26:28.232Z,46.8
2022-12-14T16:31:50.199Z,46.8
2022-12-14T16:37:34.523Z,47.6
2022-12-14T16:42:53.139Z,47.1
2022-12-14T16:48:11.306Z,46.7
2022-12-14T16:53:31.076Z,46.8
2022-12-14T16:58:49.601Z,47
2022-12-14T17:04:08.512Z,46.7
2022-12-14T17:09:26.798Z,46.2
2022-12-14T17:14:50.859Z,46.4
2022-12-14T17:20:14.714Z,46.1
2022-12-14T17:25:33.482Z,46.8
2022-12-14T17:30:51.870Z,47.1
2022-12-14T17:36:10.073Z,46
2022-12-14T17:41:28.575Z,46.4
2022-12-14T17:46:47.211Z,47.1
2022-12-14T17:52:05.739Z,46.2
2022-12-14T17:57:24.237Z,46.8
2022-12-14T18:02:43.312Z,46.9
2022-12-14T18:08:01.865Z,46.4
2022-12-14T18:13:20.325Z,46.7
2022-12-14T18:18:39.014Z,47.3
2022-12-14T18:23:57.787Z,47.6
2022-12-14T18:29:16.542Z,47.5
2022-12-14T18:34:35.338Z,47.5
2022-12-14T18:39:54.829Z,47.6
2022-12-14T18:45:13.310Z,47.4
2022-12-14T18:50:31.744Z,47.4
2022-12-14T18:55:50.234Z,47.4
2022-12-14T19:01:09.284Z,46.7
2022-12-14T19:06:46.456Z,46.1
2022-12-14T19:12:04.967Z,45.6
2022-12-14T19:17:23.720Z,45.9
2022-12-14T19:22:42.004Z,46.4
2022-12-14T19:28:33.643Z,46.4
2022-12-14T19:33:51.852Z,46
2022-12-14T19:39:09.983Z,46.1
2022-12-14T19:44:28.454Z,46.7
2022-12-14T19:49:47.205Z,47.1
2022-12-14T19:55:05.740Z,46.1
2022-12-14T20:00:24.451Z,46.7
2022-12-14T20:05:27.585Z,47.2
2022-12-14T20:10:45.895Z,47.2
2022-12-14T20:16:04.498Z,46.8
2022-12-14T20:21:07.433Z,47.4
2022-12-14T20:26:25.967Z,47.1
2022-12-14T20:31:44.724Z,46.5
2022-12-14T20:37:03.494Z,47.4
2022-12-14T20:42:22.301Z,46.9
2022-12-14T20:47:40.735Z,47
2022-12-14T20:52:58.973Z,46.9
2022-12-14T20:58:17.491Z,47.7
2022-12-14T21:03:37.534Z,47.6
2022-12-14T21:08:55.549Z,47.8
2022-12-14T21:14:13.963Z,47.7
2022-12-14T21:19:32.473Z,48
2022-12-14T21:25:06.863Z,47.5
2022-12-14T21:30:25.999Z,48.1
2022-12-14T21:35:44.282Z,47.5
2022-12-14T21:41:02.476Z,48.2
2022-12-14T21:46:27.919Z,48
2022-12-14T21:51:50.210Z,48.4
2022-12-14T21:57:08.694Z,48.2
2022-12-14T22:02:28.282Z,48.8
2022-12-14T22:07:46.916Z,48.8
2022-12-14T22:13:05.233Z,49
2022-12-14T22:18:23.762Z,48.8
2022-12-14T22:23:44.971Z,49.2
2022-12-14T22:29:03.205Z,49
2022-12-14T22:34:21.719Z,49
2022-12-14T22:39:40.171Z,49
2022-12-14T22:44:58.932Z,48.6
2022-12-14T22:50:17.238Z,48.4
2022-12-14T22:55:35.696Z,49
2022-12-14T23:00:54.171Z,48.6
2022-12-14T23:06:13.175Z,48.2
2022-12-14T23:11:31.923Z,48.2
2022-12-14T23:16:50.974Z,49
2022-12-14T23:22:08.930Z,48.3
2022-12-14T23:27:27.371Z,48.2
2022-12-14T23:32:46.165Z,48.3
2022-12-14T23:38:04.959Z,48.1
2022-12-14T23:43:23.406Z,48.8
2022-12-14T23:48:42.164Z,48.7
2022-12-14T23:54:00.132Z,48.1
2022-12-14T23:59:26.560Z,48.9
